sensor_id;sensor_type;location;lat;lon;timestamp;P1;durP1;ratioP1;P2;durP2;ratioP2
20369;SDS011;10344;47.592;9.600;2024-02-23T00:01:43;0.40;;;0.40;;
20369;SDS011;10344;47.592;9.600;2024-02-23T00:04:09;0.40;;;0.40;;
20369;SDS011;10344;47.592;9.600;2024-02-23T00:06:36;0.40;;;0.40;;
20369;SDS011;10344;47.592;9.600;2024-02-23T00:09:01;0.50;;;0.50;;
20369;SDS011;10344;47.592;9.600;2024-02-23T00:11:27;0.40;;;0.40;;
20369;SDS011;10344;47.592;9.600;2024-02-23T00:13:53;0.20;;;0.20;;
20369;SDS011;10344;47.592;9.600;2024-02-23T00:16:19;0.30;;;0.30;;
20369;SDS011;10344;47.592;9.600;2024-02-23T00:18:44;0.30;;;0.30;;
20369;SDS011;10344;47.592;9.600;2024-02-23T00:21:10;0.60;;;0.60;;
20369;SDS011;10344;47.592;9.600;2024-02-23T00:23:36;0.50;;;0.50;;
20369;SDS011;10344;47.592;9.600;2024-02-23T00:26:02;0.30;;;0.30;;
20369;SDS011;10344;47.592;9.600;2024-02-23T00:28:28;0.32;;;0.32;;
20369;SDS011;10344;47.592;9.600;2024-02-23T00:30:53;0.40;;;0.40;;
20369;SDS011;10344;47.592;9.600;2024-02-23T00:33:24;0.40;;;0.40;;
20369;SDS011;10344;47.592;9.600;2024-02-23T00:35:49;0.40;;;0.40;;
20369;SDS011;10344;47.592;9.600;2024-02-23T00:38:15;0.40;;;0.40;;
20369;SDS011;10344;47.592;9.600;2024-02-23T00:40:41;0.30;;;0.30;;
20369;SDS011;10344;47.592;9.600;2024-02-23T00:43:06;0.77;;;0.30;;
20369;SDS011;10344;47.592;9.600;2024-02-23T00:45:32;0.50;;;0.50;;
20369;SDS011;10344;47.592;9.600;2024-02-23T00:47:57;0.80;;;0.50;;
20369;SDS011;10344;47.592;9.600;2024-02-23T00:50:24;0.40;;;0.40;;
20369;SDS011;10344;47.592;9.600;2024-02-23T00:52:51;0.50;;;0.50;;
20369;SDS011;10344;47.592;9.600;2024-02-23T00:55:20;0.40;;;0.40;;
20369;SDS011;10344;47.592;9.600;2024-02-23T00:57:52;0.40;;;0.40;;
20369;SDS011;10344;47.592;9.600;2024-02-23T01:00:18;0.40;;;0.40;;
20369;SDS011;10344;47.592;9.600;2024-02-23T01:02:44;0.50;;;0.50;;
20369;SDS011;10344;47.592;9.600;2024-02-23T01:05:09;0.53;;;0.50;;
20369;SDS011;10344;47.592;9.600;2024-02-23T01:07:35;0.50;;;0.50;;
20369;SDS011;10344;47.592;9.600;2024-02-23T01:10:03;0.45;;;0.43;;
20369;SDS011;10344;47.592;9.600;2024-02-23T01:12:29;0.30;;;0.30;;
20369;SDS011;10344;47.592;9.600;2024-02-23T01:14:57;0.50;;;0.50;;
20369;SDS011;10344;47.592;9.600;2024-02-23T01:17:23;0.40;;;0.40;;
20369;SDS011;10344;47.592;9.600;2024-02-23T01:19:50;0.40;;;0.40;;
20369;SDS011;10344;47.592;9.600;2024-02-23T01:22:16;0.20;;;0.20;;
20369;SDS011;10344;47.592;9.600;2024-02-23T01:24:45;0.65;;;0.40;;
20369;SDS011;10344;47.592;9.600;2024-02-23T01:27:10;0.50;;;0.50;;
20369;SDS011;10344;47.592;9.600;2024-02-23T01:29:36;1.10;;;0.60;;
20369;SDS011;10344;47.592;9.600;2024-02-23T01:32:01;0.50;;;0.50;;
20369;SDS011;10344;47.592;9.600;2024-02-23T01:34:27;0.32;;;0.32;;
20369;SDS011;10344;47.592;9.600;2024-02-23T01:36:53;0.35;;;0.35;;
20369;SDS011;10344;47.592;9.600;2024-02-23T01:39:18;0.30;;;0.30;;
20369;SDS011;10344;47.592;9.600;2024-02-23T01:41:44;0.50;;;0.50;;
20369;SDS011;10344;47.592;9.600;2024-02-23T01:44:10;0.60;;;0.60;;
20369;SDS011;10344;47.592;9.600;2024-02-23T01:46:36;0.60;;;0.60;;
20369;SDS011;10344;47.592;9.600;2024-02-23T01:49:02;0.40;;;0.40;;
20369;SDS011;10344;47.592;9.600;2024-02-23T01:51:30;0.50;;;0.50;;
20369;SDS011;10344;47.592;9.600;2024-02-23T01:53:56;0.50;;;0.50;;
20369;SDS011;10344;47.592;9.600;2024-02-23T01:56:27;0.50;;;0.50;;
20369;SDS011;10344;47.592;9.600;2024-02-23T01:58:57;0.50;;;0.38;;
20369;SDS011;10344;47.592;9.600;2024-02-23T02:01:25;0.40;;;0.30;;
20369;SDS011;10344;47.592;9.600;2024-02-23T02:03:51;0.50;;;0.30;;
20369;SDS011;10344;47.592;9.600;2024-02-23T02:06:19;1.43;;;0.40;;
20369;SDS011;10344;47.592;9.600;2024-02-23T02:08:45;0.60;;;0.60;;
20369;SDS011;10344;47.592;9.600;2024-02-23T02:11:13;0.70;;;0.50;;
20369;SDS011;10344;47.592;9.600;2024-02-23T02:13:40;0.40;;;0.40;;
20369;SDS011;10344;47.592;9.600;2024-02-23T02:16:05;0.70;;;0.40;;
20369;SDS011;10344;47.592;9.600;2024-02-23T02:18:35;0.60;;;0.60;;
20369;SDS011;10344;47.592;9.600;2024-02-23T02:21:03;0.38;;;0.38;;
20369;SDS011;10344;47.592;9.600;2024-02-23T02:23:29;0.50;;;0.50;;
20369;SDS011;10344;47.592;9.600;2024-02-23T02:25:57;0.50;;;0.50;;
20369;SDS011;10344;47.592;9.600;2024-02-23T02:28:24;0.40;;;0.40;;
20369;SDS011;10344;47.592;9.600;2024-02-23T02:30:50;0.40;;;0.40;;
20369;SDS011;10344;47.592;9.600;2024-02-23T02:33:17;0.57;;;0.57;;
20369;SDS011;10344;47.592;9.600;2024-02-23T02:35:43;0.40;;;0.40;;
20369;SDS011;10344;47.592;9.600;2024-02-23T02:38:10;0.30;;;0.30;;
20369;SDS011;10344;47.592;9.600;2024-02-23T02:40:38;0.40;;;0.40;;
20369;SDS011;10344;47.592;9.600;2024-02-23T02:43:04;1.73;;;0.40;;
20369;SDS011;10344;47.592;9.600;2024-02-23T02:45:31;0.40;;;0.40;;
20369;SDS011;10344;47.592;9.600;2024-02-23T02:48:00;0.40;;;0.40;;
20369;SDS011;10344;47.592;9.600;2024-02-23T02:50:27;0.35;;;0.35;;
20369;SDS011;10344;47.592;9.600;2024-02-23T02:52:56;0.60;;;0.30;;
20369;SDS011;10344;47.592;9.600;2024-02-23T02:55:21;1.08;;;0.50;;
20369;SDS011;10344;47.592;9.600;2024-02-23T02:57:47;0.80;;;0.50;;
20369;SDS011;10344;47.592;9.600;2024-02-23T03:00:15;0.50;;;0.40;;
20369;SDS011;10344;47.592;9.600;2024-02-23T03:02:41;0.32;;;0.32;;
20369;SDS011;10344;47.592;9.600;2024-02-23T03:05:06;1.20;;;0.40;;
20369;SDS011;10344;47.592;9.600;2024-02-23T03:07:35;0.40;;;0.40;;
20369;SDS011;10344;47.592;9.600;2024-02-23T03:10:00;0.60;;;0.40;;
20369;SDS011;10344;47.592;9.600;2024-02-23T03:12:26;1.00;;;0.30;;
20369;SDS011;10344;47.592;9.600;2024-02-23T03:14:52;0.30;;;0.30;;
20369;SDS011;10344;47.592;9.600;2024-02-23T03:17:18;1.08;;;0.45;;
20369;SDS011;10344;47.592;9.600;2024-02-23T03:19:43;0.82;;;0.45;;
20369;SDS011;10344;47.592;9.600;2024-02-23T03:22:09;1.40;;;0.60;;
20369;SDS011;10344;47.592;9.600;2024-02-23T03:24:37;0.55;;;0.52;;
20369;SDS011;10344;47.592;9.600;2024-02-23T03:27:03;0.60;;;0.52;;
20369;SDS011;10344;47.592;9.600;2024-02-23T03:29:28;0.60;;;0.52;;
20369;SDS011;10344;47.592;9.600;2024-02-23T03:31:54;0.67;;;0.50;;
20369;SDS011;10344;47.592;9.600;2024-02-23T03:34:21;0.47;;;0.47;;
20369;SDS011;10344;47.592;9.600;2024-02-23T03:36:46;0.55;;;0.55;;
20369;SDS011;10344;47.592;9.600;2024-02-23T03:39:12;0.80;;;0.57;;
20369;SDS011;10344;47.592;9.600;2024-02-23T03:41:38;0.70;;;0.70;;
20369;SDS011;10344;47.592;9.600;2024-02-23T03:44:06;0.80;;;0.40;;
20369;SDS011;10344;47.592;9.600;2024-02-23T03:46:33;0.52;;;0.52;;
20369;SDS011;10344;47.592;9.600;2024-02-23T03:48:59;0.50;;;0.50;;
20369;SDS011;10344;47.592;9.600;2024-02-23T03:51:25;0.73;;;0.70;;
20369;SDS011;10344;47.592;9.600;2024-02-23T03:53:50;0.85;;;0.60;;
20369;SDS011;10344;47.592;9.600;2024-02-23T03:56:16;0.60;;;0.60;;
20369;SDS011;10344;47.592;9.600;2024-02-23T03:58:44;0.50;;;0.50;;
20369;SDS011;10344;47.592;9.600;2024-02-23T04:01:09;0.60;;;0.60;;
20369;SDS011;10344;47.592;9.600;2024-02-23T04:03:35;0.63;;;0.63;;
20369;SDS011;10344;47.592;9.600;2024-02-23T04:06:01;0.73;;;0.50;;
20369;SDS011;10344;47.592;9.600;2024-02-23T04:08:26;0.60;;;0.60;;
20369;SDS011;10344;47.592;9.600;2024-02-23T04:10:52;1.00;;;0.60;;
20369;SDS011;10344;47.592;9.600;2024-02-23T04:13:17;0.40;;;0.40;;
20369;SDS011;10344;47.592;9.600;2024-02-23T04:15:43;1.27;;;0.80;;
20369;SDS011;10344;47.592;9.600;2024-02-23T04:18:09;0.50;;;0.50;;
20369;SDS011;10344;47.592;9.600;2024-02-23T04:20:35;0.70;;;0.50;;
20369;SDS011;10344;47.592;9.600;2024-02-23T04:23:03;0.60;;;0.60;;
20369;SDS011;10344;47.592;9.600;2024-02-23T04:25:28;0.50;;;0.50;;
20369;SDS011;10344;47.592;9.600;2024-02-23T04:27:56;0.43;;;0.40;;
20369;SDS011;10344;47.592;9.600;2024-02-23T04:30:22;0.47;;;0.47;;
20369;SDS011;10344;47.592;9.600;2024-02-23T04:32:48;0.57;;;0.50;;
20369;SDS011;10344;47.592;9.600;2024-02-23T04:35:13;0.77;;;0.55;;
20369;SDS011;10344;47.592;9.600;2024-02-23T04:37:44;0.45;;;0.45;;
20369;SDS011;10344;47.592;9.600;2024-02-23T04:40:10;3.10;;;0.85;;
20369;SDS011;10344;47.592;9.600;2024-02-23T04:42:36;1.25;;;0.80;;
20369;SDS011;10344;47.592;9.600;2024-02-23T04:45:03;0.80;;;0.80;;
20369;SDS011;10344;47.592;9.600;2024-02-23T04:47:29;0.90;;;0.70;;
20369;SDS011;10344;47.592;9.600;2024-02-23T04:49:55;1.00;;;0.90;;
20369;SDS011;10344;47.592;9.600;2024-02-23T04:52:21;2.40;;;1.10;;
20369;SDS011;10344;47.592;9.600;2024-02-23T04:54:46;1.50;;;1.10;;
20369;SDS011;10344;47.592;9.600;2024-02-23T04:57:12;1.30;;;1.00;;
20369;SDS011;10344;47.592;9.600;2024-02-23T04:59:38;1.45;;;0.80;;
20369;SDS011;10344;47.592;9.600;2024-02-23T05:02:04;1.10;;;0.70;;
20369;SDS011;10344;47.592;9.600;2024-02-23T05:04:32;1.17;;;0.60;;
20369;SDS011;10344;47.592;9.600;2024-02-23T05:06:58;1.23;;;0.60;;
20369;SDS011;10344;47.592;9.600;2024-02-23T05:09:26;0.85;;;0.60;;
20369;SDS011;10344;47.592;9.600;2024-02-23T05:11:52;1.15;;;0.60;;
20369;SDS011;10344;47.592;9.600;2024-02-23T05:14:17;0.70;;;0.50;;
20369;SDS011;10344;47.592;9.600;2024-02-23T05:16:43;0.43;;;0.43;;
20369;SDS011;10344;47.592;9.600;2024-02-23T05:19:08;0.60;;;0.60;;
20369;SDS011;10344;47.592;9.600;2024-02-23T05:21:34;0.73;;;0.73;;
20369;SDS011;10344;47.592;9.600;2024-02-23T05:24:00;1.25;;;0.70;;
20369;SDS011;10344;47.592;9.600;2024-02-23T05:26:26;0.70;;;0.70;;
20369;SDS011;10344;47.592;9.600;2024-02-23T05:28:51;0.60;;;0.60;;
20369;SDS011;10344;47.592;9.600;2024-02-23T05:31:17;0.77;;;0.75;;
20369;SDS011;10344;47.592;9.600;2024-02-23T05:33:43;1.17;;;0.77;;
20369;SDS011;10344;47.592;9.600;2024-02-23T05:36:11;1.63;;;0.75;;
20369;SDS011;10344;47.592;9.600;2024-02-23T05:38:36;1.45;;;0.88;;
20369;SDS011;10344;47.592;9.600;2024-02-23T05:41:02;2.10;;;0.60;;
20369;SDS011;10344;47.592;9.600;2024-02-23T05:43:30;1.00;;;0.60;;
20369;SDS011;10344;47.592;9.600;2024-02-23T05:45:59;1.27;;;0.60;;
20369;SDS011;10344;47.592;9.600;2024-02-23T05:48:25;0.98;;;0.60;;
20369;SDS011;10344;47.592;9.600;2024-02-23T05:50:50;1.00;;;0.80;;
20369;SDS011;10344;47.592;9.600;2024-02-23T05:53:16;0.80;;;0.70;;
20369;SDS011;10344;47.592;9.600;2024-02-23T05:55:42;0.90;;;0.60;;
20369;SDS011;10344;47.592;9.600;2024-02-23T05:58:07;0.77;;;0.77;;
20369;SDS011;10344;47.592;9.600;2024-02-23T06:00:34;1.20;;;0.70;;
20369;SDS011;10344;47.592;9.600;2024-02-23T06:03:00;0.98;;;0.90;;
20369;SDS011;10344;47.592;9.600;2024-02-23T06:05:26;2.50;;;1.43;;
20369;SDS011;10344;47.592;9.600;2024-02-23T06:07:51;1.77;;;1.17;;
20369;SDS011;10344;47.592;9.600;2024-02-23T06:10:19;1.00;;;1.00;;
20369;SDS011;10344;47.592;9.600;2024-02-23T06:12:45;1.13;;;1.00;;
20369;SDS011;10344;47.592;9.600;2024-02-23T06:15:11;2.60;;;1.00;;
20369;SDS011;10344;47.592;9.600;2024-02-23T06:17:37;1.03;;;0.93;;
20369;SDS011;10344;47.592;9.600;2024-02-23T06:20:04;1.10;;;0.80;;
20369;SDS011;10344;47.592;9.600;2024-02-23T06:22:30;0.65;;;0.65;;
20369;SDS011;10344;47.592;9.600;2024-02-23T06:24:59;1.30;;;0.80;;
20369;SDS011;10344;47.592;9.600;2024-02-23T06:27:24;1.10;;;0.77;;
20369;SDS011;10344;47.592;9.600;2024-02-23T06:29:52;0.53;;;0.50;;
20369;SDS011;10344;47.592;9.600;2024-02-23T06:32:18;0.70;;;0.70;;
20369;SDS011;10344;47.592;9.600;2024-02-23T06:34:48;1.23;;;0.65;;
20369;SDS011;10344;47.592;9.600;2024-02-23T06:37:14;1.10;;;1.00;;
20369;SDS011;10344;47.592;9.600;2024-02-23T06:39:41;0.85;;;0.70;;
20369;SDS011;10344;47.592;9.600;2024-02-23T06:42:07;0.77;;;0.68;;
20369;SDS011;10344;47.592;9.600;2024-02-23T06:44:35;0.80;;;0.80;;
20369;SDS011;10344;47.592;9.600;2024-02-23T06:47:01;1.63;;;1.00;;
20369;SDS011;10344;47.592;9.600;2024-02-23T06:49:27;1.93;;;1.07;;
20369;SDS011;10344;47.592;9.600;2024-02-23T06:51:52;1.30;;;1.20;;
20369;SDS011;10344;47.592;9.600;2024-02-23T06:54:18;2.25;;;1.13;;
20369;SDS011;10344;47.592;9.600;2024-02-23T06:56:46;3.10;;;1.20;;
20369;SDS011;10344;47.592;9.600;2024-02-23T06:59:12;1.90;;;1.40;;
20369;SDS011;10344;47.592;9.600;2024-02-23T07:01:58;1.63;;;1.40;;
20369;SDS011;10344;47.592;9.600;2024-02-23T07:04:24;1.80;;;1.30;;
20369;SDS011;10344;47.592;9.600;2024-02-23T07:06:50;1.65;;;1.10;;
20369;SDS011;10344;47.592;9.600;2024-02-23T07:09:16;1.90;;;1.13;;
20369;SDS011;10344;47.592;9.600;2024-02-23T07:11:41;1.30;;;1.00;;
20369;SDS011;10344;47.592;9.600;2024-02-23T07:14:11;1.27;;;1.17;;
20369;SDS011;10344;47.592;9.600;2024-02-23T07:16:39;2.08;;;1.42;;
20369;SDS011;10344;47.592;9.600;2024-02-23T07:19:05;1.20;;;1.10;;
20369;SDS011;10344;47.592;9.600;2024-02-23T07:21:32;1.10;;;1.00;;
20369;SDS011;10344;47.592;9.600;2024-02-23T07:23:58;1.20;;;1.10;;
20369;SDS011;10344;47.592;9.600;2024-02-23T07:26:24;1.00;;;0.90;;
20369;SDS011;10344;47.592;9.600;2024-02-23T07:28:49;1.27;;;1.17;;
20369;SDS011;10344;47.592;9.600;2024-02-23T07:31:20;1.20;;;1.10;;
20369;SDS011;10344;47.592;9.600;2024-02-23T07:33:48;1.02;;;1.00;;
20369;SDS011;10344;47.592;9.600;2024-02-23T07:36:16;1.20;;;1.13;;
20369;SDS011;10344;47.592;9.600;2024-02-23T07:38:44;1.13;;;1.00;;
20369;SDS011;10344;47.592;9.600;2024-02-23T07:41:11;1.30;;;1.10;;
20369;SDS011;10344;47.592;9.600;2024-02-23T07:43:38;1.45;;;1.00;;
20369;SDS011;10344;47.592;9.600;2024-02-23T07:46:04;1.40;;;1.30;;
20369;SDS011;10344;47.592;9.600;2024-02-23T07:48:33;1.50;;;1.40;;
20369;SDS011;10344;47.592;9.600;2024-02-23T07:51:02;1.95;;;1.58;;
20369;SDS011;10344;47.592;9.600;2024-02-23T07:53:28;2.00;;;1.80;;
20369;SDS011;10344;47.592;9.600;2024-02-23T07:55:54;2.22;;;1.77;;
20369;SDS011;10344;47.592;9.600;2024-02-23T07:58:20;1.57;;;1.47;;
20369;SDS011;10344;47.592;9.600;2024-02-23T08:00:48;2.28;;;1.80;;
20369;SDS011;10344;47.592;9.600;2024-02-23T08:03:16;1.75;;;1.60;;
20369;SDS011;10344;47.592;9.600;2024-02-23T08:05:42;1.97;;;1.87;;
20369;SDS011;10344;47.592;9.600;2024-02-23T08:08:07;1.97;;;1.63;;
20369;SDS011;10344;47.592;9.600;2024-02-23T08:10:33;1.50;;;1.33;;
20369;SDS011;10344;47.592;9.600;2024-02-23T08:12:59;1.80;;;1.50;;
20369;SDS011;10344;47.592;9.600;2024-02-23T08:15:24;1.57;;;1.40;;
20369;SDS011;10344;47.592;9.600;2024-02-23T08:17:55;1.60;;;1.38;;
20369;SDS011;10344;47.592;9.600;2024-02-23T08:20:23;2.25;;;1.50;;
20369;SDS011;10344;47.592;9.600;2024-02-23T08:22:48;1.60;;;1.50;;
20369;SDS011;10344;47.592;9.600;2024-02-23T08:25:16;3.03;;;1.60;;
20369;SDS011;10344;47.592;9.600;2024-02-23T08:27:42;2.08;;;1.70;;
20369;SDS011;10344;47.592;9.600;2024-02-23T08:30:08;1.83;;;1.73;;
20369;SDS011;10344;47.592;9.600;2024-02-23T08:32:35;2.33;;;1.60;;
20369;SDS011;10344;47.592;9.600;2024-02-23T08:35:01;2.33;;;1.70;;
20369;SDS011;10344;47.592;9.600;2024-02-23T08:37:27;1.83;;;1.42;;
20369;SDS011;10344;47.592;9.600;2024-02-23T08:39:53;1.60;;;1.50;;
20369;SDS011;10344;47.592;9.600;2024-02-23T08:42:19;1.45;;;1.35;;
20369;SDS011;10344;47.592;9.600;2024-02-23T08:44:47;2.00;;;1.50;;
20369;SDS011;10344;47.592;9.600;2024-02-23T08:47:13;1.60;;;1.50;;
20369;SDS011;10344;47.592;9.600;2024-02-23T08:49:38;1.60;;;1.50;;
20369;SDS011;10344;47.592;9.600;2024-02-23T08:52:04;2.10;;;1.90;;
20369;SDS011;10344;47.592;9.600;2024-02-23T08:54:30;2.42;;;1.60;;
20369;SDS011;10344;47.592;9.600;2024-02-23T08:56:55;1.90;;;1.47;;
20369;SDS011;10344;47.592;9.600;2024-02-23T08:59:21;3.43;;;2.43;;
20369;SDS011;10344;47.592;9.600;2024-02-23T09:01:47;4.17;;;3.40;;
20369;SDS011;10344;47.592;9.600;2024-02-23T09:04:15;2.30;;;2.00;;
20369;SDS011;10344;47.592;9.600;2024-02-23T09:06:41;3.50;;;2.70;;
20369;SDS011;10344;47.592;9.600;2024-02-23T09:09:06;2.93;;;2.40;;
20369;SDS011;10344;47.592;9.600;2024-02-23T09:11:33;3.55;;;2.08;;
20369;SDS011;10344;47.592;9.600;2024-02-23T09:13:59;1.33;;;1.20;;
20369;SDS011;10344;47.592;9.600;2024-02-23T09:16:24;1.20;;;1.10;;
20369;SDS011;10344;47.592;9.600;2024-02-23T09:18:50;1.27;;;0.83;;
20369;SDS011;10344;47.592;9.600;2024-02-23T09:21:16;1.60;;;1.17;;
20369;SDS011;10344;47.592;9.600;2024-02-23T09:23:41;0.80;;;0.80;;
20369;SDS011;10344;47.592;9.600;2024-02-23T09:26:10;1.47;;;0.93;;
20369;SDS011;10344;47.592;9.600;2024-02-23T09:28:36;1.83;;;1.05;;
20369;SDS011;10344;47.592;9.600;2024-02-23T09:31:02;1.20;;;1.10;;
20369;SDS011;10344;47.592;9.600;2024-02-23T09:33:29;2.35;;;1.10;;
20369;SDS011;10344;47.592;9.600;2024-02-23T09:35:55;1.10;;;1.00;;
20369;SDS011;10344;47.592;9.600;2024-02-23T09:38:22;1.10;;;0.98;;
20369;SDS011;10344;47.592;9.600;2024-02-23T09:40:49;1.38;;;1.27;;
20369;SDS011;10344;47.592;9.600;2024-02-23T09:43:16;1.00;;;0.88;;
20369;SDS011;10344;47.592;9.600;2024-02-23T09:45:44;1.85;;;1.00;;
20369;SDS011;10344;47.592;9.600;2024-02-23T09:48:10;1.27;;;1.17;;
20369;SDS011;10344;47.592;9.600;2024-02-23T09:50:38;1.73;;;1.10;;
20369;SDS011;10344;47.592;9.600;2024-02-23T09:53:08;1.00;;;1.00;;
20369;SDS011;10344;47.592;9.600;2024-02-23T09:55:38;1.52;;;1.00;;
20369;SDS011;10344;47.592;9.600;2024-02-23T09:58:04;1.53;;;1.30;;
20369;SDS011;10344;47.592;9.600;2024-02-23T10:00:34;1.80;;;1.10;;
20369;SDS011;10344;47.592;9.600;2024-02-23T10:03:02;1.35;;;1.02;;
20369;SDS011;10344;47.592;9.600;2024-02-23T10:05:29;3.42;;;1.65;;
20369;SDS011;10344;47.592;9.600;2024-02-23T10:07:57;1.85;;;1.60;;
20369;SDS011;10344;47.592;9.600;2024-02-23T10:10:32;2.08;;;1.35;;
20369;SDS011;10344;47.592;9.600;2024-02-23T10:12:59;2.40;;;1.60;;
20369;SDS011;10344;47.592;9.600;2024-02-23T10:15:29;1.58;;;1.15;;
20369;SDS011;10344;47.592;9.600;2024-02-23T10:17:56;1.90;;;1.20;;
20369;SDS011;10344;47.592;9.600;2024-02-23T10:20:23;1.90;;;1.17;;
20369;SDS011;10344;47.592;9.600;2024-02-23T10:22:49;1.60;;;1.10;;
20369;SDS011;10344;47.592;9.600;2024-02-23T10:25:17;1.20;;;1.10;;
20369;SDS011;10344;47.592;9.600;2024-02-23T10:27:43;1.35;;;1.00;;
20369;SDS011;10344;47.592;9.600;2024-02-23T10:30:08;1.27;;;0.90;;
20369;SDS011;10344;47.592;9.600;2024-02-23T10:32:38;1.50;;;0.95;;
20369;SDS011;10344;47.592;9.600;2024-02-23T10:35:15;3.43;;;1.17;;
20369;SDS011;10344;47.592;9.600;2024-02-23T10:37:44;2.15;;;1.30;;
20369;SDS011;10344;47.592;9.600;2024-02-23T10:40:15;1.50;;;1.10;;
20369;SDS011;10344;47.592;9.600;2024-02-23T10:42:43;1.10;;;0.88;;
20369;SDS011;10344;47.592;9.600;2024-02-23T10:45:12;3.28;;;1.20;;
20369;SDS011;10344;47.592;9.600;2024-02-23T10:47:41;1.45;;;1.05;;
20369;SDS011;10344;47.592;9.600;2024-02-23T10:50:09;0.63;;;0.63;;
20369;SDS011;10344;47.592;9.600;2024-02-23T10:52:39;1.33;;;0.82;;
20369;SDS011;10344;47.592;9.600;2024-02-23T10:55:09;1.02;;;0.90;;
20369;SDS011;10344;47.592;9.600;2024-02-23T10:57:37;2.45;;;1.20;;
20369;SDS011;10344;47.592;9.600;2024-02-23T11:00:07;1.10;;;1.00;;
20369;SDS011;10344;47.592;9.600;2024-02-23T11:02:44;1.55;;;1.00;;
20369;SDS011;10344;47.592;9.600;2024-02-23T11:05:14;1.20;;;0.95;;
20369;SDS011;10344;47.592;9.600;2024-02-23T11:07:41;1.70;;;1.13;;
20369;SDS011;10344;47.592;9.600;2024-02-23T11:10:09;1.17;;;1.10;;
20369;SDS011;10344;47.592;9.600;2024-02-23T11:12:38;1.90;;;1.10;;
20369;SDS011;10344;47.592;9.600;2024-02-23T11:15:04;1.97;;;1.20;;
20369;SDS011;10344;47.592;9.600;2024-02-23T11:17:30;1.65;;;1.10;;
20369;SDS011;10344;47.592;9.600;2024-02-23T11:19:57;1.50;;;1.20;;
20369;SDS011;10344;47.592;9.600;2024-02-23T11:22:24;2.95;;;1.83;;
20369;SDS011;10344;47.592;9.600;2024-02-23T11:24:51;1.50;;;1.40;;
20369;SDS011;10344;47.592;9.600;2024-02-23T11:27:16;2.00;;;1.20;;
20369;SDS011;10344;47.592;9.600;2024-02-23T11:29:43;2.00;;;1.30;;
20369;SDS011;10344;47.592;9.600;2024-02-23T11:32:23;3.42;;;1.48;;
20369;SDS011;10344;47.592;9.600;2024-02-23T11:35:05;2.33;;;1.30;;
20369;SDS011;10344;47.592;9.600;2024-02-23T11:37:54;1.55;;;1.45;;
20369;SDS011;10344;47.592;9.600;2024-02-23T11:40:24;1.95;;;1.40;;
20369;SDS011;10344;47.592;9.600;2024-02-23T11:42:56;2.58;;;1.50;;
20369;SDS011;10344;47.592;9.600;2024-02-23T11:45:25;3.20;;;1.50;;
20369;SDS011;10344;47.592;9.600;2024-02-23T11:47:53;2.42;;;1.70;;
20369;SDS011;10344;47.592;9.600;2024-02-23T11:50:21;3.05;;;1.90;;
20369;SDS011;10344;47.592;9.600;2024-02-23T11:52:47;1.75;;;1.58;;
20369;SDS011;10344;47.592;9.600;2024-02-23T11:55:13;2.70;;;1.83;;
20369;SDS011;10344;47.592;9.600;2024-02-23T11:57:47;2.70;;;1.95;;
20369;SDS011;10344;47.592;9.600;2024-02-23T12:00:13;2.05;;;1.63;;
20369;SDS011;10344;47.592;9.600;2024-02-23T12:02:43;2.90;;;1.85;;
20369;SDS011;10344;47.592;9.600;2024-02-23T12:05:11;2.60;;;2.05;;
20369;SDS011;10344;47.592;9.600;2024-02-23T12:07:39;2.43;;;2.00;;
20369;SDS011;10344;47.592;9.600;2024-02-23T12:10:05;3.53;;;2.42;;
20369;SDS011;10344;47.592;9.600;2024-02-23T12:12:35;3.80;;;2.60;;
20369;SDS011;10344;47.592;9.600;2024-02-23T12:15:01;4.13;;;1.98;;
20369;SDS011;10344;47.592;9.600;2024-02-23T12:17:27;3.05;;;2.40;;
20369;SDS011;10344;47.592;9.600;2024-02-23T12:19:59;3.10;;;2.42;;
20369;SDS011;10344;47.592;9.600;2024-02-23T12:22:25;3.15;;;2.53;;
20369;SDS011;10344;47.592;9.600;2024-02-23T12:24:51;2.47;;;2.17;;
20369;SDS011;10344;47.592;9.600;2024-02-23T12:27:17;3.20;;;2.20;;
20369;SDS011;10344;47.592;9.600;2024-02-23T12:29:50;2.42;;;1.90;;
20369;SDS011;10344;47.592;9.600;2024-02-23T12:32:20;3.22;;;2.00;;
20369;SDS011;10344;47.592;9.600;2024-02-23T12:34:46;3.38;;;1.85;;
20369;SDS011;10344;47.592;9.600;2024-02-23T12:37:18;1.75;;;1.20;;
20369;SDS011;10344;47.592;9.600;2024-02-23T12:39:44;1.38;;;1.27;;
20369;SDS011;10344;47.592;9.600;2024-02-23T12:42:13;1.67;;;1.50;;
20369;SDS011;10344;47.592;9.600;2024-02-23T12:44:41;1.55;;;1.38;;
20369;SDS011;10344;47.592;9.600;2024-02-23T12:47:08;1.55;;;1.45;;
20369;SDS011;10344;47.592;9.600;2024-02-23T12:49:34;1.30;;;1.20;;
20369;SDS011;10344;47.592;9.600;2024-02-23T12:52:00;3.25;;;1.60;;
20369;SDS011;10344;47.592;9.600;2024-02-23T12:54:26;2.60;;;1.50;;
20369;SDS011;10344;47.592;9.600;2024-02-23T12:56:51;2.30;;;1.23;;
20369;SDS011;10344;47.592;9.600;2024-02-23T12:59:17;0.85;;;0.85;;
20369;SDS011;10344;47.592;9.600;2024-02-23T13:01:43;1.13;;;1.00;;
20369;SDS011;10344;47.592;9.600;2024-02-23T13:04:08;1.87;;;1.60;;
20369;SDS011;10344;47.592;9.600;2024-02-23T13:06:39;1.45;;;1.35;;
20369;SDS011;10344;47.592;9.600;2024-02-23T13:09:05;2.40;;;1.80;;
20369;SDS011;10344;47.592;9.600;2024-02-23T13:11:33;2.35;;;1.70;;
20369;SDS011;10344;47.592;9.600;2024-02-23T13:14:00;1.52;;;1.20;;
20369;SDS011;10344;47.592;9.600;2024-02-23T13:16:28;1.30;;;1.20;;
20369;SDS011;10344;47.592;9.600;2024-02-23T13:18:53;1.50;;;1.40;;
20369;SDS011;10344;47.592;9.600;2024-02-23T13:21:19;2.00;;;1.60;;
20369;SDS011;10344;47.592;9.600;2024-02-23T13:23:47;3.03;;;1.50;;
20369;SDS011;10344;47.592;9.600;2024-02-23T13:26:13;1.38;;;1.20;;
20369;SDS011;10344;47.592;9.600;2024-02-23T13:28:42;1.87;;;1.27;;
20369;SDS011;10344;47.592;9.600;2024-02-23T13:31:09;1.30;;;1.20;;
20369;SDS011;10344;47.592;9.600;2024-02-23T13:33:37;2.20;;;1.40;;
20369;SDS011;10344;47.592;9.600;2024-02-23T13:36:03;1.85;;;1.17;;
20369;SDS011;10344;47.592;9.600;2024-02-23T13:38:29;1.05;;;0.95;;
20369;SDS011;10344;47.592;9.600;2024-02-23T13:40:55;2.25;;;1.20;;
20369;SDS011;10344;47.592;9.600;2024-02-23T13:43:21;1.60;;;1.40;;
20369;SDS011;10344;47.592;9.600;2024-02-23T13:45:50;1.27;;;1.17;;
20369;SDS011;10344;47.592;9.600;2024-02-23T13:48:17;1.10;;;1.00;;
20369;SDS011;10344;47.592;9.600;2024-02-23T13:50:44;1.23;;;1.10;;
20369;SDS011;10344;47.592;9.600;2024-02-23T13:53:13;1.52;;;1.13;;
20369;SDS011;10344;47.592;9.600;2024-02-23T13:55:39;1.50;;;1.10;;
20369;SDS011;10344;47.592;9.600;2024-02-23T13:58:06;1.27;;;1.17;;
20369;SDS011;10344;47.592;9.600;2024-02-23T14:00:32;1.30;;;1.20;;
20369;SDS011;10344;47.592;9.600;2024-02-23T14:03:00;1.60;;;1.10;;
20369;SDS011;10344;47.592;9.600;2024-02-23T14:05:26;1.23;;;1.10;;
20369;SDS011;10344;47.592;9.600;2024-02-23T14:07:51;1.30;;;1.20;;
20369;SDS011;10344;47.592;9.600;2024-02-23T14:10:20;1.90;;;1.30;;
20369;SDS011;10344;47.592;9.600;2024-02-23T14:12:48;1.23;;;1.13;;
20369;SDS011;10344;47.592;9.600;2024-02-23T14:15:15;3.38;;;1.30;;
20369;SDS011;10344;47.592;9.600;2024-02-23T14:17:42;2.17;;;1.20;;
20369;SDS011;10344;47.592;9.600;2024-02-23T14:20:08;1.40;;;1.30;;
20369;SDS011;10344;47.592;9.600;2024-02-23T14:22:36;1.63;;;1.50;;
20369;SDS011;10344;47.592;9.600;2024-02-23T14:25:02;1.40;;;1.20;;
20369;SDS011;10344;47.592;9.600;2024-02-23T14:27:27;2.05;;;1.40;;
20369;SDS011;10344;47.592;9.600;2024-02-23T14:29:53;2.63;;;1.60;;
20369;SDS011;10344;47.592;9.600;2024-02-23T14:32:21;1.83;;;1.13;;
20369;SDS011;10344;47.592;9.600;2024-02-23T14:34:47;3.00;;;1.60;;
20369;SDS011;10344;47.592;9.600;2024-02-23T14:37:13;3.90;;;1.60;;
20369;SDS011;10344;47.592;9.600;2024-02-23T14:39:41;3.17;;;1.70;;
20369;SDS011;10344;47.592;9.600;2024-02-23T14:42:06;3.00;;;1.90;;
20369;SDS011;10344;47.592;9.600;2024-02-23T14:44:33;4.22;;;1.70;;
20369;SDS011;10344;47.592;9.600;2024-02-23T14:47:02;3.17;;;1.48;;